sensor_id;sensor_type;location;lat;lon;timestamp;noise_LAeq;noise_LA_min;noise_LA_max;noise_LA01;noise_LA95
75467;Laerm;64050;50.634;3.062;2023-07-22T00:00:25;47.72;43.76;54.85;;
75467;Laerm;64050;50.634;3.062;2023-07-22T00:02:51;47.25;43.86;56.27;;
75467;Laerm;64050;50.634;3.062;2023-07-22T00:05:16;47.35;43.80;52.22;;
75467;Laerm;64050;50.634;3.062;2023-07-22T00:07:47;48.88;43.30;57.29;;
75467;Laerm;64050;50.634;3.062;2023-07-22T00:10:12;47.13;43.43;56.37;;
75467;Laerm;64050;50.634;3.062;2023-07-22T00:12:37;46.83;43.10;53.92;;
75467;Laerm;64050;50.634;3.062;2023-07-22T00:15:03;47.06;43.57;50.16;;
75467;Laerm;64050;50.634;3.062;2023-07-22T00:17:28;46.79;43.00;49.87;;
75467;Laerm;64050;50.634;3.062;2023-07-22T00:19:54;47.04;43.29;49.99;;
75467;Laerm;64050;50.634;3.062;2023-07-22T00:22:20;47.24;43.50;54.76;;
75467;Laerm;64050;50.634;3.062;2023-07-22T00:24:45;46.89;43.15;50.53;;
75467;Laerm;64050;50.634;3.062;2023-07-22T00:27:11;46.51;43.42;49.41;;
75467;Laerm;64050;50.634;3.062;2023-07-22T00:29:36;46.57;43.07;49.45;;
75467;Laerm;64050;50.634;3.062;2023-07-22T00:32:01;46.93;43.38;58.07;;
75467;Laerm;64050;50.634;3.062;2023-07-22T00:34:26;46.87;43.30;49.49;;
75467;Laerm;64050;50.634;3.062;2023-07-22T00:36:52;46.80;42.97;50.22;;
75467;Laerm;64050;50.634;3.062;2023-07-22T00:39:17;46.85;43.82;50.00;;
75467;Laerm;64050;50.634;3.062;2023-07-22T00:41:43;46.98;43.72;50.36;;
75467;Laerm;64050;50.634;3.062;2023-07-22T00:44:09;46.83;43.94;49.62;;
75467;Laerm;64050;50.634;3.062;2023-07-22T00:46:34;46.73;43.65;49.31;;
75467;Laerm;64050;50.634;3.062;2023-07-22T00:49:00;46.79;43.56;49.66;;
75467;Laerm;64050;50.634;3.062;2023-07-22T00:51:25;46.93;43.94;50.16;;
75467;Laerm;64050;50.634;3.062;2023-07-22T00:53:50;46.96;44.03;50.40;;
75467;Laerm;64050;50.634;3.062;2023-07-22T00:56:16;47.01;43.10;52.14;;
75467;Laerm;64050;50.634;3.062;2023-07-22T00:58:41;46.77;43.58;50.59;;
75467;Laerm;64050;50.634;3.062;2023-07-22T01:01:06;46.50;43.06;50.07;;
75467;Laerm;64050;50.634;3.062;2023-07-22T01:03:32;46.57;42.95;50.05;;
75467;Laerm;64050;50.634;3.062;2023-07-22T01:05:57;46.78;42.79;50.04;;
75467;Laerm;64050;50.634;3.062;2023-07-22T01:08:25;46.75;43.37;49.50;;
75467;Laerm;64050;50.634;3.062;2023-07-22T01:10:50;47.11;43.90;51.28;;
75467;Laerm;64050;50.634;3.062;2023-07-22T01:13:16;46.81;43.23;49.53;;
75467;Laerm;64050;50.634;3.062;2023-07-22T01:15:41;46.39;42.92;49.44;;
75467;Laerm;64050;50.634;3.062;2023-07-22T01:18:06;46.38;42.38;52.15;;
75467;Laerm;64050;50.634;3.062;2023-07-22T01:20:31;46.48;43.16;49.94;;
75467;Laerm;64050;50.634;3.062;2023-07-22T01:22:57;47.11;43.70;51.26;;
75467;Laerm;64050;50.634;3.062;2023-07-22T01:25:22;46.75;43.36;50.32;;
75467;Laerm;64050;50.634;3.062;2023-07-22T01:27:51;46.88;43.18;58.21;;
75467;Laerm;64050;50.634;3.062;2023-07-22T01:30:16;46.49;43.33;49.76;;
75467;Laerm;64050;50.634;3.062;2023-07-22T01:32:42;46.50;42.76;49.30;;
75467;Laerm;64050;50.634;3.062;2023-07-22T01:35:07;46.61;43.49;49.21;;
75467;Laerm;64050;50.634;3.062;2023-07-22T01:37:33;46.70;43.72;49.89;;
75467;Laerm;64050;50.634;3.062;2023-07-22T01:39:58;46.68;43.08;49.72;;
75467;Laerm;64050;50.634;3.062;2023-07-22T01:42:23;46.78;43.44;50.10;;
75467;Laerm;64050;50.634;3.062;2023-07-22T01:44:49;46.71;42.61;53.97;;
75467;Laerm;64050;50.634;3.062;2023-07-22T01:47:14;46.41;43.38;49.38;;
75467;Laerm;64050;50.634;3.062;2023-07-22T01:49:39;46.17;42.84;49.13;;
75467;Laerm;64050;50.634;3.062;2023-07-22T01:52:04;46.50;43.09;49.41;;
75467;Laerm;64050;50.634;3.062;2023-07-22T01:54:30;46.73;43.36;49.63;;
75467;Laerm;64050;50.634;3.062;2023-07-22T01:56:55;46.87;43.37;50.32;;
75467;Laerm;64050;50.634;3.062;2023-07-22T01:59:20;47.00;42.52;54.04;;
75467;Laerm;64050;50.634;3.062;2023-07-22T02:01:45;46.86;43.39;54.56;;
75467;Laerm;64050;50.634;3.062;2023-07-22T02:04:12;46.74;43.17;57.66;;
75467;Laerm;64050;50.634;3.062;2023-07-22T02:06:37;46.41;43.59;49.32;;
75467;Laerm;64050;50.634;3.062;2023-07-22T02:09:03;46.54;43.20;49.33;;
75467;Laerm;64050;50.634;3.062;2023-07-22T02:11:33;46.60;42.92;49.91;;
75467;Laerm;64050;50.634;3.062;2023-07-22T02:13:58;46.66;42.77;49.72;;
75467;Laerm;64050;50.634;3.062;2023-07-22T02:16:23;46.92;43.47;49.65;;
75467;Laerm;64050;50.634;3.062;2023-07-22T02:18:49;46.36;43.38;49.20;;
75467;Laerm;64050;50.634;3.062;2023-07-22T02:21:14;46.96;42.96;58.61;;
75467;Laerm;64050;50.634;3.062;2023-07-22T02:23:39;46.30;42.73;51.20;;
75467;Laerm;64050;50.634;3.062;2023-07-22T02:26:04;46.21;42.74;49.60;;
75467;Laerm;64050;50.634;3.062;2023-07-22T02:28:30;46.41;42.53;50.36;;
75467;Laerm;64050;50.634;3.062;2023-07-22T02:30:55;46.50;42.23;52.68;;
75467;Laerm;64050;50.634;3.062;2023-07-22T02:33:21;46.46;42.89;49.67;;
75467;Laerm;64050;50.634;3.062;2023-07-22T02:35:49;46.08;42.48;50.55;;
75467;Laerm;64050;50.634;3.062;2023-07-22T02:38:14;46.15;42.75;48.85;;
75467;Laerm;64050;50.634;3.062;2023-07-22T02:40:40;46.12;42.59;49.74;;
75467;Laerm;64050;50.634;3.062;2023-07-22T02:43:05;46.40;43.18;49.98;;
75467;Laerm;64050;50.634;3.062;2023-07-22T02:45:31;46.38;42.94;49.30;;
75467;Laerm;64050;50.634;3.062;2023-07-22T02:47:57;46.43;43.03;50.10;;
75467;Laerm;64050;50.634;3.062;2023-07-22T02:50:22;46.25;42.15;49.16;;
75467;Laerm;64050;50.634;3.062;2023-07-22T02:52:48;45.95;42.77;53.39;;
75467;Laerm;64050;50.634;3.062;2023-07-22T02:55:14;46.09;42.85;49.10;;
75467;Laerm;64050;50.634;3.062;2023-07-22T02:57:40;46.22;42.79;49.27;;
75467;Laerm;64050;50.634;3.062;2023-07-22T03:00:06;46.40;42.74;49.73;;
75467;Laerm;64050;50.634;3.062;2023-07-22T03:02:36;46.46;42.61;49.29;;
75467;Laerm;64050;50.634;3.062;2023-07-22T03:05:02;46.20;42.46;49.05;;
75467;Laerm;64050;50.634;3.062;2023-07-22T03:07:29;46.11;42.58;49.85;;
75467;Laerm;64050;50.634;3.062;2023-07-22T03:09:55;46.18;43.21;51.80;;
75467;Laerm;64050;50.634;3.062;2023-07-22T03:12:20;46.23;42.95;49.31;;
75467;Laerm;64050;50.634;3.062;2023-07-22T03:14:45;46.27;43.04;49.16;;
75467;Laerm;64050;50.634;3.062;2023-07-22T03:17:11;46.82;42.23;53.71;;
75467;Laerm;64050;50.634;3.062;2023-07-22T03:19:37;46.42;43.09;49.65;;
75467;Laerm;64050;50.634;3.062;2023-07-22T03:22:02;46.29;43.01;49.23;;
75467;Laerm;64050;50.634;3.062;2023-07-22T03:24:28;46.12;42.64;51.04;;
75467;Laerm;64050;50.634;3.062;2023-07-22T03:26:53;46.13;42.99;49.49;;
75467;Laerm;64050;50.634;3.062;2023-07-22T03:29:18;46.24;43.07;49.34;;
75467;Laerm;64050;50.634;3.062;2023-07-22T03:31:43;46.48;42.66;49.89;;
75467;Laerm;64050;50.634;3.062;2023-07-22T03:34:09;46.39;42.92;49.22;;
75467;Laerm;64050;50.634;3.062;2023-07-22T03:36:34;46.11;42.52;49.13;;
75467;Laerm;64050;50.634;3.062;2023-07-22T03:38:59;46.09;42.76;49.25;;
75467;Laerm;64050;50.634;3.062;2023-07-22T03:41:25;46.10;42.54;50.27;;
75467;Laerm;64050;50.634;3.062;2023-07-22T03:43:50;46.63;43.29;52.43;;
75467;Laerm;64050;50.634;3.062;2023-07-22T03:46:15;46.51;43.01;49.76;;
75467;Laerm;64050;50.634;3.062;2023-07-22T03:48:40;46.81;42.66;51.51;;
75467;Laerm;64050;50.634;3.062;2023-07-22T03:51:05;46.59;43.12;52.46;;
75467;Laerm;64050;50.634;3.062;2023-07-22T03:53:31;46.02;43.05;48.85;;
75467;Laerm;64050;50.634;3.062;2023-07-22T03:55:56;46.62;43.21;55.28;;
75467;Laerm;64050;50.634;3.062;2023-07-22T03:58:21;46.58;42.79;50.96;;
75467;Laerm;64050;50.634;3.062;2023-07-22T04:00:50;46.71;42.92;50.46;;
75467;Laerm;64050;50.634;3.062;2023-07-22T04:03:15;46.65;42.77;49.89;;
75467;Laerm;64050;50.634;3.062;2023-07-22T04:05:40;47.16;43.43;54.21;;
75467;Laerm;64050;50.634;3.062;2023-07-22T04:08:06;47.02;43.79;54.64;;
75467;Laerm;64050;50.634;3.062;2023-07-22T04:10:31;46.33;43.03;52.58;;
75467;Laerm;64050;50.634;3.062;2023-07-22T04:12:56;46.97;42.59;54.40;;
75467;Laerm;64050;50.634;3.062;2023-07-22T04:15:21;46.85;43.62;50.26;;
75467;Laerm;64050;50.634;3.062;2023-07-22T04:17:47;47.22;43.43;54.20;;
75467;Laerm;64050;50.634;3.062;2023-07-22T04:20:12;47.54;44.00;54.84;;
75467;Laerm;64050;50.634;3.062;2023-07-22T04:22:37;47.74;43.83;52.78;;
75467;Laerm;64050;50.634;3.062;2023-07-22T04:25:02;46.65;43.54;52.15;;
75467;Laerm;64050;50.634;3.062;2023-07-22T04:27:29;47.08;43.72;53.81;;
75467;Laerm;64050;50.634;3.062;2023-07-22T04:29:54;47.14;43.34;52.04;;
75467;Laerm;64050;50.634;3.062;2023-07-22T04:32:19;47.66;43.38;56.56;;
75467;Laerm;64050;50.634;3.062;2023-07-22T04:34:44;46.79;43.23;50.03;;
75467;Laerm;64050;50.634;3.062;2023-07-22T04:37:09;46.46;43.04;50.06;;
75467;Laerm;64050;50.634;3.062;2023-07-22T04:39:36;46.48;43.30;51.51;;
75467;Laerm;64050;50.634;3.062;2023-07-22T04:42:02;46.55;43.37;54.74;;
75467;Laerm;64050;50.634;3.062;2023-07-22T04:44:27;46.65;43.47;52.86;;
75467;Laerm;64050;50.634;3.062;2023-07-22T04:46:52;46.95;43.49;51.21;;
75467;Laerm;64050;50.634;3.062;2023-07-22T04:49:18;46.72;43.41;53.00;;
75467;Laerm;64050;50.634;3.062;2023-07-22T04:51:46;46.81;43.70;52.85;;
75467;Laerm;64050;50.634;3.062;2023-07-22T04:54:11;47.40;44.13;53.56;;
75467;Laerm;64050;50.634;3.062;2023-07-22T04:56:37;46.75;43.55;53.79;;
75467;Laerm;64050;50.634;3.062;2023-07-22T04:59:03;47.58;42.66;54.99;;
75467;Laerm;64050;50.634;3.062;2023-07-22T05:01:28;53.27;45.48;64.80;;
75467;Laerm;64050;50.634;3.062;2023-07-22T05:03:54;53.23;45.36;64.78;;
75467;Laerm;64050;50.634;3.062;2023-07-22T05:06:20;49.81;45.07;65.05;;
75467;Laerm;64050;50.634;3.062;2023-07-22T05:08:45;48.68;43.18;64.03;;
75467;Laerm;64050;50.634;3.062;2023-07-22T05:11:10;48.78;43.63;64.76;;
75467;Laerm;64050;50.634;3.062;2023-07-22T05:13:36;47.79;43.56;63.81;;
75467;Laerm;64050;50.634;3.062;2023-07-22T05:16:01;47.39;43.69;54.98;;
75467;Laerm;64050;50.634;3.062;2023-07-22T05:18:26;47.79;44.25;57.16;;
75467;Laerm;64050;50.634;3.062;2023-07-22T05:20:51;47.47;43.89;51.16;;
75467;Laerm;64050;50.634;3.062;2023-07-22T05:23:17;47.60;43.81;53.04;;
75467;Laerm;64050;50.634;3.062;2023-07-22T05:25:42;47.03;43.45;51.14;;
75467;Laerm;64050;50.634;3.062;2023-07-22T05:28:07;47.75;44.26;52.10;;
75467;Laerm;64050;50.634;3.062;2023-07-22T05:30:32;47.36;43.96;51.11;;
75467;Laerm;64050;50.634;3.062;2023-07-22T05:32:58;47.17;43.82;50.31;;
75467;Laerm;64050;50.634;3.062;2023-07-22T05:35:23;47.76;43.81;68.89;;
75467;Laerm;64050;50.634;3.062;2023-07-22T05:37:48;47.17;43.59;54.65;;
75467;Laerm;64050;50.634;3.062;2023-07-22T05:40:14;48.09;43.17;54.31;;
75467;Laerm;64050;50.634;3.062;2023-07-22T05:42:39;47.42;43.25;54.31;;
75467;Laerm;64050;50.634;3.062;2023-07-22T05:45:06;47.32;44.04;53.40;;
75467;Laerm;64050;50.634;3.062;2023-07-22T05:47:31;47.06;44.00;51.91;;
75467;Laerm;64050;50.634;3.062;2023-07-22T05:49:56;47.36;43.30;51.73;;
75467;Laerm;64050;50.634;3.062;2023-07-22T05:52:22;46.94;43.46;49.99;;
75467;Laerm;64050;50.634;3.062;2023-07-22T05:54:47;47.35;43.22;51.29;;
75467;Laerm;64050;50.634;3.062;2023-07-22T05:57:12;47.82;44.18;53.90;;
75467;Laerm;64050;50.634;3.062;2023-07-22T05:59:37;47.27;43.53;57.17;;
75467;Laerm;64050;50.634;3.062;2023-07-22T06:02:04;47.28;43.86;53.46;;
75467;Laerm;64050;50.634;3.062;2023-07-22T06:04:30;47.58;44.29;51.59;;
75467;Laerm;64050;50.634;3.062;2023-07-22T06:06:55;50.02;44.36;70.78;;
75467;Laerm;64050;50.634;3.062;2023-07-22T06:09:20;47.84;44.07;59.03;;
75467;Laerm;64050;50.634;3.062;2023-07-22T06:11:46;48.25;44.13;57.83;;
75467;Laerm;64050;50.634;3.062;2023-07-22T06:14:11;47.23;43.98;50.95;;
75467;Laerm;64050;50.634;3.062;2023-07-22T06:16:37;51.23;43.84;61.58;;
75467;Laerm;64050;50.634;3.062;2023-07-22T06:19:03;48.39;43.75;56.69;;
75467;Laerm;64050;50.634;3.062;2023-07-22T06:21:28;47.53;43.99;59.13;;
75467;Laerm;64050;50.634;3.062;2023-07-22T06:23:54;47.63;43.86;54.86;;
75467;Laerm;64050;50.634;3.062;2023-07-22T06:26:19;49.37;44.28;56.93;;
75467;Laerm;64050;50.634;3.062;2023-07-22T06:28:44;53.36;45.55;63.00;;
75467;Laerm;64050;50.634;3.062;2023-07-22T06:31:09;49.79;44.00;54.62;;
75467;Laerm;64050;50.634;3.062;2023-07-22T06:33:35;50.86;44.42;59.18;;
75467;Laerm;64050;50.634;3.062;2023-07-22T06:36:01;54.42;50.51;59.28;;
75467;Laerm;64050;50.634;3.062;2023-07-22T06:38:26;54.69;50.49;58.23;;
75467;Laerm;64050;50.634;3.062;2023-07-22T06:40:54;55.03;51.18;59.93;;
75467;Laerm;64050;50.634;3.062;2023-07-22T06:43:20;54.88;51.40;63.07;;
75467;Laerm;64050;50.634;3.062;2023-07-22T06:45:45;54.47;50.84;58.22;;
75467;Laerm;64050;50.634;3.062;2023-07-22T06:48:10;55.40;52.31;58.84;;
75467;Laerm;64050;50.634;3.062;2023-07-22T06:50:35;55.43;52.40;58.95;;
75467;Laerm;64050;50.634;3.062;2023-07-22T06:53:00;56.94;51.70;64.88;;
75467;Laerm;64050;50.634;3.062;2023-07-22T06:55:26;54.58;51.08;63.10;;
75467;Laerm;64050;50.634;3.062;2023-07-22T06:57:51;55.02;51.38;63.73;;
75467;Laerm;64050;50.634;3.062;2023-07-22T07:00:16;54.77;50.83;69.31;;
75467;Laerm;64050;50.634;3.062;2023-07-22T07:02:41;55.42;51.99;63.09;;
75467;Laerm;64050;50.634;3.062;2023-07-22T07:05:07;55.06;51.92;68.27;;
75467;Laerm;64050;50.634;3.062;2023-07-22T07:07:32;54.63;50.28;61.16;;
75467;Laerm;64050;50.634;3.062;2023-07-22T07:09:57;54.88;51.50;60.76;;
75467;Laerm;64050;50.634;3.062;2023-07-22T07:12:23;56.49;51.27;72.98;;
75467;Laerm;64050;50.634;3.062;2023-07-22T07:14:50;54.77;51.34;61.95;;
75467;Laerm;64050;50.634;3.062;2023-07-22T07:17:15;54.74;51.27;58.17;;
75467;Laerm;64050;50.634;3.062;2023-07-22T07:19:40;54.91;51.31;63.99;;
75467;Laerm;64050;50.634;3.062;2023-07-22T07:22:06;55.60;51.27;66.49;;
75467;Laerm;64050;50.634;3.062;2023-07-22T07:24:31;54.85;51.56;63.71;;
75467;Laerm;64050;50.634;3.062;2023-07-22T07:26:56;54.91;51.26;59.25;;
75467;Laerm;64050;50.634;3.062;2023-07-22T07:29:21;55.82;50.98;63.37;;
75467;Laerm;64050;50.634;3.062;2023-07-22T07:31:47;55.18;51.77;63.65;;
75467;Laerm;64050;50.634;3.062;2023-07-22T07:34:12;56.43;51.57;68.98;;
75467;Laerm;64050;50.634;3.062;2023-07-22T07:36:37;54.88;50.85;62.56;;
75467;Laerm;64050;50.634;3.062;2023-07-22T07:39:02;54.88;50.63;58.52;;
75467;Laerm;64050;50.634;3.062;2023-07-22T07:41:28;55.10;51.77;62.59;;
75467;Laerm;64050;50.634;3.062;2023-07-22T07:43:54;55.44;51.44;60.90;;
75467;Laerm;64050;50.634;3.062;2023-07-22T07:48:48;56.34;51.20;73.38;;
75467;Laerm;64050;50.634;3.062;2023-07-22T07:51:14;59.19;53.38;69.47;;
75467;Laerm;64050;50.634;3.062;2023-07-22T07:53:40;58.50;55.28;67.45;;
75467;Laerm;64050;50.634;3.062;2023-07-22T07:56:06;58.35;51.64;74.49;;
75467;Laerm;64050;50.634;3.062;2023-07-22T07:58:31;57.40;51.37;70.94;;
75467;Laerm;64050;50.634;3.062;2023-07-22T08:00:56;56.00;51.80;61.65;;
75467;Laerm;64050;50.634;3.062;2023-07-22T08:03:22;56.18;51.41;70.00;;
75467;Laerm;64050;50.634;3.062;2023-07-22T08:05:47;55.01;50.95;64.20;;
75467;Laerm;64050;50.634;3.062;2023-07-22T08:08:12;54.78;51.59;63.35;;
75467;Laerm;64050;50.634;3.062;2023-07-22T08:10:37;54.85;51.16;60.54;;
75467;Laerm;64050;50.634;3.062;2023-07-22T08:13:04;56.07;52.08;66.22;;
75467;Laerm;64050;50.634;3.062;2023-07-22T08:15:29;56.16;52.72;69.78;;
75467;Laerm;64050;50.634;3.062;2023-07-22T08:17:54;55.83;51.29;69.10;;
75467;Laerm;64050;50.634;3.062;2023-07-22T08:20:19;55.42;51.23;66.06;;
75467;Laerm;64050;50.634;3.062;2023-07-22T08:22:46;55.10;51.08;61.31;;
75467;Laerm;64050;50.634;3.062;2023-07-22T08:25:11;55.04;51.26;62.45;;
75467;Laerm;64050;50.634;3.062;2023-07-22T08:27:37;54.88;51.25;63.30;;
75467;Laerm;64050;50.634;3.062;2023-07-22T08:30:02;54.90;51.12;61.67;;
75467;Laerm;64050;50.634;3.062;2023-07-22T08:32:27;55.24;51.37;63.74;;
75467;Laerm;64050;50.634;3.062;2023-07-22T08:34:53;55.24;51.76;66.01;;
75467;Laerm;64050;50.634;3.062;2023-07-22T08:37:18;55.15;51.67;65.93;;
75467;Laerm;64050;50.634;3.062;2023-07-22T08:39:43;55.29;51.71;63.18;;
75467;Laerm;64050;50.634;3.062;2023-07-22T08:42:09;55.15;51.76;65.91;;
75467;Laerm;64050;50.634;3.062;2023-07-22T08:44:34;57.12;51.17;77.99;;
75467;Laerm;64050;50.634;3.062;2023-07-22T08:47:02;58.60;51.76;85.94;;
75467;Laerm;64050;50.634;3.062;2023-07-22T08:49:30;55.36;51.07;71.80;;
75467;Laerm;64050;50.634;3.062;2023-07-22T08:51:56;57.52;51.44;87.06;;
75467;Laerm;64050;50.634;3.062;2023-07-22T08:54:24;56.83;51.20;77.35;;
75467;Laerm;64050;50.634;3.062;2023-07-22T08:56:49;56.82;50.95;75.85;;
75467;Laerm;64050;50.634;3.062;2023-07-22T08:59:16;55.87;51.44;73.74;;
75467;Laerm;64050;50.634;3.062;2023-07-22T09:01:42;54.92;51.30;65.00;;
75467;Laerm;64050;50.634;3.062;2023-07-22T09:04:07;55.27;51.28;62.71;;
75467;Laerm;64050;50.634;3.062;2023-07-22T09:06:33;55.00;51.01;64.42;;
75467;Laerm;64050;50.634;3.062;2023-07-22T09:08:59;55.07;51.74;65.04;;
75467;Laerm;64050;50.634;3.062;2023-07-22T09:11:24;54.82;51.56;60.68;;
75467;Laerm;64050;50.634;3.062;2023-07-22T09:13:50;55.05;51.28;64.73;;
75467;Laerm;64050;50.634;3.062;2023-07-22T09:16:17;54.75;51.04;60.14;;
75467;Laerm;64050;50.634;3.062;2023-07-22T09:18:42;55.18;51.65;68.55;;
75467;Laerm;64050;50.634;3.062;2023-07-22T09:21:07;55.12;51.73;60.07;;
75467;Laerm;64050;50.634;3.062;2023-07-22T09:23:38;55.41;51.53;70.79;;
75467;Laerm;64050;50.634;3.062;2023-07-22T09:26:13;57.93;51.66;81.45;;
75467;Laerm;64050;50.634;3.062;2023-07-22T09:28:48;57.85;50.79;85.20;;
75467;Laerm;64050;50.634;3.062;2023-07-22T09:31:13;54.25;48.61;70.90;;
75467;Laerm;64050;50.634;3.062;2023-07-22T09:33:39;53.34;48.45;75.72;;
75467;Laerm;64050;50.634;3.062;2023-07-22T09:36:04;52.18;48.53;64.40;;
75467;Laerm;64050;50.634;3.062;2023-07-22T09:38:29;53.65;48.83;74.73;;
75467;Laerm;64050;50.634;3.062;2023-07-22T09:40:54;52.77;48.51;64.20;;
75467;Laerm;64050;50.634;3.062;2023-07-22T09:43:21;53.42;48.19;70.01;;
75467;Laerm;64050;50.634;3.062;2023-07-22T09:45:47;54.05;48.24;66.41;;
75467;Laerm;64050;50.634;3.062;2023-07-22T09:48:12;52.60;48.11;64.32;;
75467;Laerm;64050;50.634;3.062;2023-07-22T09:50:37;53.50;48.90;71.08;;
75467;Laerm;64050;50.634;3.062;2023-07-22T09:53:03;53.00;48.46;65.61;;
75467;Laerm;64050;50.634;3.062;2023-07-22T09:55:29;52.88;48.30;64.30;;
75467;Laerm;64050;50.634;3.062;2023-07-22T09:57:56;56.54;49.30;74.55;;
75467;Laerm;64050;50.634;3.062;2023-07-22T10:00:23;54.84;48.66;70.28;;
75467;Laerm;64050;50.634;3.062;2023-07-22T10:02:49;56.48;49.22;67.91;;
75467;Laerm;64050;50.634;3.062;2023-07-22T10:05:16;58.39;53.38;80.44;;
75467;Laerm;64050;50.634;3.062;2023-07-22T10:07:46;56.78;52.58;69.08;;
75467;Laerm;64050;50.634;3.062;2023-07-22T10:10:12;56.84;53.02;70.54;;
75467;Laerm;64050;50.634;3.062;2023-07-22T10:12:39;56.81;53.45;68.75;;
75467;Laerm;64050;50.634;3.062;2023-07-22T10:15:05;57.81;53.99;66.76;;
75467;Laerm;64050;50.634;3.062;2023-07-22T10:17:30;58.20;54.41;73.03;;
75467;Laerm;64050;50.634;3.062;2023-07-22T10:19:56;58.10;54.36;65.50;;
75467;Laerm;64050;50.634;3.062;2023-07-22T10:22:22;58.02;54.14;67.52;;
75467;Laerm;64050;50.634;3.062;2023-07-22T10:24:47;58.16;54.28;64.81;;
75467;Laerm;64050;50.634;3.062;2023-07-22T10:27:13;57.88;54.40;61.99;;
75467;Laerm;64050;50.634;3.062;2023-07-22T10:29:39;58.10;54.19;67.42;;
75467;Laerm;64050;50.634;3.062;2023-07-22T10:32:04;58.48;53.94;74.53;;
75467;Laerm;64050;50.634;3.062;2023-07-22T10:34:30;58.74;54.61;69.61;;
75467;Laerm;64050;50.634;3.062;2023-07-22T10:36:58;57.93;54.74;63.02;;
75467;Laerm;64050;50.634;3.062;2023-07-22T10:39:27;57.88;54.46;64.52;;
75467;Laerm;64050;50.634;3.062;2023-07-22T10:42:02;58.04;54.31;66.83;;
75467;Laerm;64050;50.634;3.062;2023-07-22T10:44:30;58.03;54.70;65.56;;
75467;Laerm;64050;50.634;3.062;2023-07-22T10:46:59;57.90;54.68;64.20;;
75467;Laerm;64050;50.634;3.062;2023-07-22T10:49:24;58.06;54.15;63.46;;
75467;Laerm;64050;50.634;3.062;2023-07-22T10:51:52;58.22;54.27;65.92;;
75467;Laerm;64050;50.634;3.062;2023-07-22T10:54:34;58.16;54.42;64.32;;
75467;Laerm;64050;50.634;3.062;2023-07-22T10:57:03;58.18;54.57;68.87;;
75467;Laerm;64050;50.634;3.062;2023-07-22T10:59:32;58.24;54.82;66.24;;
75467;Laerm;64050;50.634;3.062;2023-07-22T11:01:58;58.15;54.24;65.61;;
75467;Laerm;64050;50.634;3.062;2023-07-22T11:04:23;58.57;54.34;75.30;;
75467;Laerm;64050;50.634;3.062;2023-07-22T11:06:56;58.25;54.13;71.48;;
75467;Laerm;64050;50.634;3.062;2023-07-22T11:14:24;58.25;54.65;66.56;;
75467;Laerm;64050;50.634;3.062;2023-07-22T11:16:49;58.27;54.59;73.28;;
75467;Laerm;64050;50.634;3.062;2023-07-22T11:19:15;58.09;54.03;67.77;;
75467;Laerm;64050;50.634;3.062;2023-07-22T11:21:44;58.07;54.57;67.62;;
75467;Laerm;64050;50.634;3.062;2023-07-22T11:24:09;58.23;54.54;63.96;;
75467;Laerm;64050;50.634;3.062;2023-07-22T11:26:35;58.17;54.53;68.27;;
75467;Laerm;64050;50.634;3.062;2023-07-22T11:29:01;58.06;54.38;65.81;;
75467;Laerm;64050;50.634;3.062;2023-07-22T11:31:33;58.13;54.02;71.82;;
75467;Laerm;64050;50.634;3.062;2023-07-22T11:33:59;58.17;54.78;69.04;;
75467;Laerm;64050;50.634;3.062;2023-07-22T11:36:25;58.39;53.91;63.99;;
75467;Laerm;64050;50.634;3.062;2023-07-22T11:38:50;58.22;54.41;66.78;;
75467;Laerm;64050;50.634;3.062;2023-07-22T11:41:15;58.42;54.92;68.39;;
75467;Laerm;64050;50.634;3.062;2023-07-22T11:43:42;58.77;54.56;72.99;;
75467;Laerm;64050;50.634;3.062;2023-07-22T11:46:07;58.45;54.12;70.23;;
75467;Laerm;64050;50.634;3.062;2023-07-22T11:48:32;58.35;54.57;66.54;;
75467;Laerm;64050;50.634;3.062;2023-07-22T11:51:00;58.68;54.78;68.31;;
75467;Laerm;64050;50.634;3.062;2023-07-22T11:53:26;58.58;55.01;71.68;;
75467;Laerm;64050;50.634;3.062;2023-07-22T11:55:52;58.52;54.73;68.63;;
75467;Laerm;64050;50.634;3.062;2023-07-22T11:58:25;58.49;54.94;68.12;;
75467;Laerm;64050;50.634;3.062;2023-07-22T12:01:11;58.48;54.56;65.91;;
75467;Laerm;64050;50.634;3.062;2023-07-22T12:03:36;58.51;54.75;66.94;;
75467;Laerm;64050;50.634;3.062;2023-07-22T12:06:05;58.43;54.74;68.34;;
75467;Laerm;64050;50.634;3.062;2023-07-22T12:08:31;58.45;54.39;66.23;;
75467;Laerm;64050;50.634;3.062;2023-07-22T12:10:57;58.62;54.66;68.76;;
75467;Laerm;64050;50.634;3.062;2023-07-22T12:13:23;58.64;54.85;65.22;;
75467;Laerm;64050;50.634;3.062;2023-07-22T12:16:01;58.32;54.55;64.73;;
75467;Laerm;64050;50.634;3.062;2023-07-22T12:18:26;58.47;54.36;69.70;;
75467;Laerm;64050;50.634;3.062;2023-07-22T12:20:52;58.27;54.15;66.03;;
75467;Laerm;64050;50.634;3.062;2023-07-22T12:23:17;58.15;54.73;66.74;;
75467;Laerm;64050;50.634;3.062;2023-07-22T12:25:43;58.14;54.72;65.40;;
75467;Laerm;64050;50.634;3.062;2023-07-22T12:28:08;58.24;54.57;73.35;;
75467;Laerm;64050;50.634;3.062;2023-07-22T12:30:35;58.54;54.19;66.86;;
75467;Laerm;64050;50.634;3.062;2023-07-22T12:33:01;58.02;54.19;66.01;;
75467;Laerm;64050;50.634;3.062;2023-07-22T12:35:27;58.31;54.61;69.68;;
75467;Laerm;64050;50.634;3.062;2023-07-22T12:37:52;58.17;54.50;66.08;;
75467;Laerm;64050;50.634;3.062;2023-07-22T12:40:17;58.43;54.24;68.34;;
75467;Laerm;64050;50.634;3.062;2023-07-22T12:42:42;58.75;54.80;80.34;;
75467;Laerm;64050;50.634;3.062;2023-07-22T12:45:08;58.35;54.11;70.74;;
75467;Laerm;64050;50.634;3.062;2023-07-22T12:47:33;58.28;54.88;64.76;;
75467;Laerm;64050;50.634;3.062;2023-07-22T12:49:58;58.33;54.73;69.89;;
75467;Laerm;64050;50.634;3.062;2023-07-22T12:52:24;58.21;54.63;65.49;;
75467;Laerm;64050;50.634;3.062;2023-07-22T12:54:49;58.24;54.59;66.26;;
75467;Laerm;64050;50.634;3.062;2023-07-22T12:57:14;58.86;55.12;75.59;;
75467;Laerm;64050;50.634;3.062;2023-07-22T12:59:39;58.29;54.42;67.82;;
75467;Laerm;64050;50.634;3.062;2023-07-22T13:02:06;58.10;54.34;65.68;;
75467;Laerm;64050;50.634;3.062;2023-07-22T13:04:31;58.25;55.01;67.14;;
75467;Laerm;64050;50.634;3.062;2023-07-22T13:06:56;58.44;54.53;81.36;;
75467;Laerm;64050;50.634;3.062;2023-07-22T13:09:21;58.12;54.27;62.16;;
75467;Laerm;64050;50.634;3.062;2023-07-22T13:11:46;58.69;54.87;69.13;;
75467;Laerm;64050;50.634;3.062;2023-07-22T13:14:12;58.60;54.46;67.55;;
75467;Laerm;64050;50.634;3.062;2023-07-22T13:16:37;58.37;54.43;66.93;;
75467;Laerm;64050;50.634;3.062;2023-07-22T13:19:02;58.75;54.60;68.96;;
75467;Laerm;64050;50.634;3.062;2023-07-22T13:21:28;58.87;54.98;68.95;;
75467;Laerm;64050;50.634;3.062;2023-07-22T13:23:54;58.62;54.71;69.40;;
75467;Laerm;64050;50.634;3.062;2023-07-22T13:26:19;58.88;53.40;75.00;;
75467;Laerm;64050;50.634;3.062;2023-07-22T13:28:44;58.33;54.46;65.34;;
75467;Laerm;64050;50.634;3.062;2023-07-22T13:31:09;59.44;54.99;69.81;;
75467;Laerm;64050;50.634;3.062;2023-07-22T13:33:34;58.90;54.08;68.66;;
75467;Laerm;64050;50.634;3.062;2023-07-22T13:36:00;58.70;54.62;69.85;;
75467;Laerm;64050;50.634;3.062;2023-07-22T13:38:25;57.96;54.12;62.59;;
75467;Laerm;64050;50.634;3.062;2023-07-22T13:40:51;58.24;54.59;67.57;;
75467;Laerm;64050;50.634;3.062;2023-07-22T13:43:16;59.10;54.84;69.50;;